sensor_id;sensor_type;location;lat;lon;timestamp;P1;durP1;ratioP1;P2;durP2;ratioP2
62863;SDS011;48954;59.950;11.014;2022-10-16T00:02:13;4.00;;;1.90;;
62863;SDS011;48954;59.950;11.014;2022-10-16T00:04:38;3.20;;;1.80;;
62863;SDS011;48954;59.950;11.014;2022-10-16T00:07:04;4.40;;;1.80;;
62863;SDS011;48954;59.950;11.014;2022-10-16T00:09:30;4.90;;;1.80;;
62863;SDS011;48954;59.950;11.014;2022-10-16T00:11:55;2.90;;;1.60;;
62863;SDS011;48954;59.950;11.014;2022-10-16T00:14:24;3.00;;;1.60;;
62863;SDS011;48954;59.950;11.014;2022-10-16T00:16:50;4.90;;;1.70;;
62863;SDS011;48954;59.950;11.014;2022-10-16T00:19:15;3.00;;;1.50;;
62863;SDS011;48954;59.950;11.014;2022-10-16T00:21:41;2.90;;;1.20;;
62863;SDS011;48954;59.950;11.014;2022-10-16T00:24:08;3.40;;;1.30;;
62863;SDS011;48954;59.950;11.014;2022-10-16T00:26:35;4.10;;;1.20;;
62863;SDS011;48954;59.950;11.014;2022-10-16T00:29:07;2.40;;;1.20;;
62863;SDS011;48954;59.950;11.014;2022-10-16T00:31:33;2.60;;;1.40;;
62863;SDS011;48954;59.950;11.014;2022-10-16T00:33:59;2.50;;;1.40;;
62863;SDS011;48954;59.950;11.014;2022-10-16T00:36:25;4.10;;;1.50;;
62863;SDS011;48954;59.950;11.014;2022-10-16T00:38:52;2.30;;;1.00;;
62863;SDS011;48954;59.950;11.014;2022-10-16T00:41:21;2.80;;;1.00;;
62863;SDS011;48954;59.950;11.014;2022-10-16T00:43:55;5.80;;;1.10;;
62863;SDS011;48954;59.950;11.014;2022-10-16T00:49:16;3.40;;;1.10;;
62863;SDS011;48954;59.950;11.014;2022-10-16T00:51:45;3.40;;;1.00;;
62863;SDS011;48954;59.950;11.014;2022-10-16T00:54:20;2.10;;;0.90;;
62863;SDS011;48954;59.950;11.014;2022-10-16T00:56:50;1.80;;;0.90;;
62863;SDS011;48954;59.950;11.014;2022-10-16T00:59:28;3.40;;;0.80;;
62863;SDS011;48954;59.950;11.014;2022-10-16T01:02:17;2.90;;;0.70;;
62863;SDS011;48954;59.950;11.014;2022-10-16T01:04:47;0.90;;;0.50;;
62863;SDS011;48954;59.950;11.014;2022-10-16T01:09:52;1.10;;;0.50;;
62863;SDS011;48954;59.950;11.014;2022-10-16T01:12:23;0.90;;;0.40;;
62863;SDS011;48954;59.950;11.014;2022-10-16T01:28:22;1.20;;;1.00;;
62863;SDS011;48954;59.950;11.014;2022-10-16T01:30:53;1.70;;;0.70;;
62863;SDS011;48954;59.950;11.014;2022-10-16T01:33:28;1.20;;;0.70;;
62863;SDS011;48954;59.950;11.014;2022-10-16T01:36:02;0.80;;;0.50;;
62863;SDS011;48954;59.950;11.014;2022-10-16T01:38:40;0.70;;;0.50;;
62863;SDS011;48954;59.950;11.014;2022-10-16T01:41:18;1.70;;;0.60;;
62863;SDS011;48954;59.950;11.014;2022-10-16T01:43:49;1.80;;;0.60;;
62863;SDS011;48954;59.950;11.014;2022-10-16T01:46:22;1.20;;;0.60;;
62863;SDS011;48954;59.950;11.014;2022-10-16T01:48:52;1.00;;;0.70;;
62863;SDS011;48954;59.950;11.014;2022-10-16T01:51:19;1.40;;;0.60;;
62863;SDS011;48954;59.950;11.014;2022-10-16T01:53:48;1.30;;;0.40;;
62863;SDS011;48954;59.950;11.014;2022-10-16T01:56:17;2.50;;;0.60;;
62863;SDS011;48954;59.950;11.014;2022-10-16T01:58:47;1.00;;;0.60;;
62863;SDS011;48954;59.950;11.014;2022-10-16T02:01:16;0.80;;;0.50;;
62863;SDS011;48954;59.950;11.014;2022-10-16T02:03:45;1.80;;;0.50;;
62863;SDS011;48954;59.950;11.014;2022-10-16T02:06:14;1.60;;;0.50;;
62863;SDS011;48954;59.950;11.014;2022-10-16T02:08:39;2.60;;;0.50;;
62863;SDS011;48954;59.950;11.014;2022-10-16T02:11:05;1.20;;;0.50;;
62863;SDS011;48954;59.950;11.014;2022-10-16T02:16:13;1.10;;;0.50;;
62863;SDS011;48954;59.950;11.014;2022-10-16T02:18:39;1.30;;;0.50;;
62863;SDS011;48954;59.950;11.014;2022-10-16T02:21:16;1.10;;;0.70;;
62863;SDS011;48954;59.950;11.014;2022-10-16T02:26:35;1.40;;;0.90;;
62863;SDS011;48954;59.950;11.014;2022-10-16T02:29:08;1.30;;;0.60;;
62863;SDS011;48954;59.950;11.014;2022-10-16T02:31:38;2.80;;;1.00;;
62863;SDS011;48954;59.950;11.014;2022-10-16T02:34:08;2.00;;;0.80;;
62863;SDS011;48954;59.950;11.014;2022-10-16T02:36:36;1.70;;;0.90;;
62863;SDS011;48954;59.950;11.014;2022-10-16T02:39:03;1.60;;;0.70;;
62863;SDS011;48954;59.950;11.014;2022-10-16T02:41:30;3.70;;;0.90;;
62863;SDS011;48954;59.950;11.014;2022-10-16T02:43:55;1.10;;;0.60;;
62863;SDS011;48954;59.950;11.014;2022-10-16T02:46:21;1.50;;;0.80;;
62863;SDS011;48954;59.950;11.014;2022-10-16T02:48:47;2.10;;;0.70;;
62863;SDS011;48954;59.950;11.014;2022-10-16T02:51:14;1.40;;;0.80;;
62863;SDS011;48954;59.950;11.014;2022-10-16T02:53:40;1.50;;;0.80;;
62863;SDS011;48954;59.950;11.014;2022-10-16T02:56:07;3.00;;;0.80;;
62863;SDS011;48954;59.950;11.014;2022-10-16T02:58:36;1.10;;;0.70;;
62863;SDS011;48954;59.950;11.014;2022-10-16T03:01:02;2.50;;;0.90;;
62863;SDS011;48954;59.950;11.014;2022-10-16T03:03:27;1.20;;;0.70;;
62863;SDS011;48954;59.950;11.014;2022-10-16T03:05:53;2.00;;;0.70;;
62863;SDS011;48954;59.950;11.014;2022-10-16T03:08:19;1.50;;;0.60;;
62863;SDS011;48954;59.950;11.014;2022-10-16T03:10:45;1.00;;;0.60;;
62863;SDS011;48954;59.950;11.014;2022-10-16T03:13:11;1.20;;;0.80;;
62863;SDS011;48954;59.950;11.014;2022-10-16T03:15:36;1.40;;;0.40;;
62863;SDS011;48954;59.950;11.014;2022-10-16T03:18:02;1.10;;;0.70;;
62863;SDS011;48954;59.950;11.014;2022-10-16T03:20:28;1.20;;;0.80;;
62863;SDS011;48954;59.950;11.014;2022-10-16T03:22:54;1.50;;;0.70;;
62863;SDS011;48954;59.950;11.014;2022-10-16T03:25:20;1.90;;;0.70;;
62863;SDS011;48954;59.950;11.014;2022-10-16T03:27:45;1.00;;;0.60;;
62863;SDS011;48954;59.950;11.014;2022-10-16T03:30:11;2.40;;;1.00;;
62863;SDS011;48954;59.950;11.014;2022-10-16T03:32:37;1.90;;;1.00;;
62863;SDS011;48954;59.950;11.014;2022-10-16T03:35:03;1.40;;;0.80;;
62863;SDS011;48954;59.950;11.014;2022-10-16T03:37:29;2.10;;;1.10;;
62863;SDS011;48954;59.950;11.014;2022-10-16T03:39:54;2.10;;;1.20;;
62863;SDS011;48954;59.950;11.014;2022-10-16T03:42:21;3.70;;;1.90;;
62863;SDS011;48954;59.950;11.014;2022-10-16T03:44:46;3.20;;;1.90;;
62863;SDS011;48954;59.950;11.014;2022-10-16T03:47:12;4.70;;;2.00;;
62863;SDS011;48954;59.950;11.014;2022-10-16T03:49:38;4.00;;;1.60;;
62863;SDS011;48954;59.950;11.014;2022-10-16T03:52:04;4.20;;;1.90;;
62863;SDS011;48954;59.950;11.014;2022-10-16T03:54:29;3.80;;;1.70;;
62863;SDS011;48954;59.950;11.014;2022-10-16T03:56:55;3.70;;;1.70;;
62863;SDS011;48954;59.950;11.014;2022-10-16T03:59:21;4.00;;;2.20;;
62863;SDS011;48954;59.950;11.014;2022-10-16T04:01:47;3.30;;;1.50;;
62863;SDS011;48954;59.950;11.014;2022-10-16T04:04:12;2.60;;;1.50;;
62863;SDS011;48954;59.950;11.014;2022-10-16T04:06:38;5.30;;;2.00;;
62863;SDS011;48954;59.950;11.014;2022-10-16T04:09:04;4.70;;;2.30;;
62863;SDS011;48954;59.950;11.014;2022-10-16T04:11:29;4.60;;;2.30;;
62863;SDS011;48954;59.950;11.014;2022-10-16T04:13:55;3.60;;;2.20;;
62863;SDS011;48954;59.950;11.014;2022-10-16T04:16:23;3.40;;;1.80;;
62863;SDS011;48954;59.950;11.014;2022-10-16T04:18:49;2.70;;;1.60;;
62863;SDS011;48954;59.950;11.014;2022-10-16T04:21:15;2.60;;;1.40;;
62863;SDS011;48954;59.950;11.014;2022-10-16T04:23:41;2.30;;;1.30;;
62863;SDS011;48954;59.950;11.014;2022-10-16T04:26:07;3.60;;;1.30;;
62863;SDS011;48954;59.950;11.014;2022-10-16T04:28:33;3.10;;;1.70;;
62863;SDS011;48954;59.950;11.014;2022-10-16T04:30:59;3.10;;;1.60;;
62863;SDS011;48954;59.950;11.014;2022-10-16T04:33:25;4.90;;;2.30;;
62863;SDS011;48954;59.950;11.014;2022-10-16T04:35:57;3.30;;;1.60;;
62863;SDS011;48954;59.950;11.014;2022-10-16T04:38:24;2.70;;;1.30;;
62863;SDS011;48954;59.950;11.014;2022-10-16T04:40:49;4.30;;;1.60;;
62863;SDS011;48954;59.950;11.014;2022-10-16T04:43:15;3.50;;;1.70;;
62863;SDS011;48954;59.950;11.014;2022-10-16T04:45:41;4.70;;;2.40;;
62863;SDS011;48954;59.950;11.014;2022-10-16T04:48:07;4.70;;;1.90;;
62863;SDS011;48954;59.950;11.014;2022-10-16T04:50:32;2.90;;;1.80;;
62863;SDS011;48954;59.950;11.014;2022-10-16T04:52:58;3.80;;;1.80;;
62863;SDS011;48954;59.950;11.014;2022-10-16T04:55:24;3.90;;;1.70;;
62863;SDS011;48954;59.950;11.014;2022-10-16T04:57:49;2.70;;;1.20;;
62863;SDS011;48954;59.950;11.014;2022-10-16T05:00:15;4.00;;;1.20;;
62863;SDS011;48954;59.950;11.014;2022-10-16T05:02:41;4.30;;;1.50;;
62863;SDS011;48954;59.950;11.014;2022-10-16T05:05:07;3.70;;;1.40;;
62863;SDS011;48954;59.950;11.014;2022-10-16T05:07:33;3.20;;;1.60;;
62863;SDS011;48954;59.950;11.014;2022-10-16T05:09:58;4.50;;;2.20;;
62863;SDS011;48954;59.950;11.014;2022-10-16T05:12:24;1.80;;;1.10;;
62863;SDS011;48954;59.950;11.014;2022-10-16T05:14:50;2.50;;;1.00;;
62863;SDS011;48954;59.950;11.014;2022-10-16T05:17:16;2.60;;;1.20;;
62863;SDS011;48954;59.950;11.014;2022-10-16T05:19:41;3.60;;;2.10;;
62863;SDS011;48954;59.950;11.014;2022-10-16T05:22:07;4.20;;;1.90;;
62863;SDS011;48954;59.950;11.014;2022-10-16T05:24:33;3.70;;;1.80;;
62863;SDS011;48954;59.950;11.014;2022-10-16T05:26:58;5.60;;;2.30;;
62863;SDS011;48954;59.950;11.014;2022-10-16T05:29:24;3.20;;;1.60;;
62863;SDS011;48954;59.950;11.014;2022-10-16T05:31:51;5.00;;;1.70;;
62863;SDS011;48954;59.950;11.014;2022-10-16T05:34:18;5.00;;;1.90;;
62863;SDS011;48954;59.950;11.014;2022-10-16T05:36:43;4.40;;;2.00;;
62863;SDS011;48954;59.950;11.014;2022-10-16T05:39:10;2.90;;;1.60;;
62863;SDS011;48954;59.950;11.014;2022-10-16T05:41:35;3.00;;;1.40;;
62863;SDS011;48954;59.950;11.014;2022-10-16T05:44:04;2.40;;;1.10;;
62863;SDS011;48954;59.950;11.014;2022-10-16T05:46:31;2.90;;;1.50;;
62863;SDS011;48954;59.950;11.014;2022-10-16T05:49:00;2.50;;;1.10;;
62863;SDS011;48954;59.950;11.014;2022-10-16T05:51:26;3.10;;;1.60;;
62863;SDS011;48954;59.950;11.014;2022-10-16T05:53:52;3.90;;;1.30;;
62863;SDS011;48954;59.950;11.014;2022-10-16T05:56:18;2.70;;;1.40;;
62863;SDS011;48954;59.950;11.014;2022-10-16T05:58:43;3.10;;;1.40;;
62863;SDS011;48954;59.950;11.014;2022-10-16T06:01:16;2.90;;;1.20;;
62863;SDS011;48954;59.950;11.014;2022-10-16T06:06:19;4.00;;;1.80;;
62863;SDS011;48954;59.950;11.014;2022-10-16T06:08:47;4.60;;;2.50;;
62863;SDS011;48954;59.950;11.014;2022-10-16T06:11:15;5.10;;;2.40;;
62863;SDS011;48954;59.950;11.014;2022-10-16T06:13:43;8.00;;;3.00;;
62863;SDS011;48954;59.950;11.014;2022-10-16T06:16:10;6.00;;;2.80;;
62863;SDS011;48954;59.950;11.014;2022-10-16T06:18:36;3.70;;;2.00;;
62863;SDS011;48954;59.950;11.014;2022-10-16T06:21:06;3.60;;;2.10;;
62863;SDS011;48954;59.950;11.014;2022-10-16T06:23:37;6.70;;;2.80;;
62863;SDS011;48954;59.950;11.014;2022-10-16T06:26:10;5.80;;;2.70;;
62863;SDS011;48954;59.950;11.014;2022-10-16T06:28:37;5.60;;;2.50;;
62863;SDS011;48954;59.950;11.014;2022-10-16T06:31:04;5.50;;;2.90;;
62863;SDS011;48954;59.950;11.014;2022-10-16T06:33:31;6.50;;;2.90;;
62863;SDS011;48954;59.950;11.014;2022-10-16T06:36:04;5.30;;;2.40;;
62863;SDS011;48954;59.950;11.014;2022-10-16T06:38:31;5.70;;;2.70;;
62863;SDS011;48954;59.950;11.014;2022-10-16T06:40:58;6.00;;;2.90;;
62863;SDS011;48954;59.950;11.014;2022-10-16T06:43:24;6.10;;;2.50;;
62863;SDS011;48954;59.950;11.014;2022-10-16T06:45:54;6.00;;;2.60;;
62863;SDS011;48954;59.950;11.014;2022-10-16T06:48:24;4.10;;;2.00;;
62863;SDS011;48954;59.950;11.014;2022-10-16T06:51:09;7.80;;;3.60;;
62863;SDS011;48954;59.950;11.014;2022-10-16T06:53:46;7.50;;;4.10;;
62863;SDS011;48954;59.950;11.014;2022-10-16T06:56:20;8.60;;;3.80;;
62863;SDS011;48954;59.950;11.014;2022-10-16T07:01:17;5.90;;;2.60;;
62863;SDS011;48954;59.950;11.014;2022-10-16T07:03:45;6.70;;;3.20;;
62863;SDS011;48954;59.950;11.014;2022-10-16T07:06:12;10.40;;;4.90;;
62863;SDS011;48954;59.950;11.014;2022-10-16T07:08:40;10.10;;;5.60;;
62863;SDS011;48954;59.950;11.014;2022-10-16T07:11:09;7.30;;;3.80;;
62863;SDS011;48954;59.950;11.014;2022-10-16T07:13:38;7.20;;;3.40;;
62863;SDS011;48954;59.950;11.014;2022-10-16T07:16:07;8.80;;;3.40;;
62863;SDS011;48954;59.950;11.014;2022-10-16T07:18:35;5.30;;;2.80;;
62863;SDS011;48954;59.950;11.014;2022-10-16T07:23:38;6.40;;;3.10;;
62863;SDS011;48954;59.950;11.014;2022-10-16T07:26:04;6.70;;;2.40;;
62863;SDS011;48954;59.950;11.014;2022-10-16T07:28:32;9.00;;;2.70;;
62863;SDS011;48954;59.950;11.014;2022-10-16T07:31:06;8.50;;;2.90;;
62863;SDS011;48954;59.950;11.014;2022-10-16T07:33:34;7.60;;;3.30;;
62863;SDS011;48954;59.950;11.014;2022-10-16T07:36:01;8.00;;;2.80;;
62863;SDS011;48954;59.950;11.014;2022-10-16T07:38:27;12.40;;;3.60;;
62863;SDS011;48954;59.950;11.014;2022-10-16T07:41:00;5.80;;;2.30;;
62863;SDS011;48954;59.950;11.014;2022-10-16T07:43:28;6.60;;;2.20;;
62863;SDS011;48954;59.950;11.014;2022-10-16T07:45:57;5.50;;;3.00;;
62863;SDS011;48954;59.950;11.014;2022-10-16T07:48:23;6.50;;;3.90;;
62863;SDS011;48954;59.950;11.014;2022-10-16T07:50:52;9.50;;;4.60;;
62863;SDS011;48954;59.950;11.014;2022-10-16T07:53:18;10.60;;;4.70;;
62863;SDS011;48954;59.950;11.014;2022-10-16T07:55:44;8.00;;;4.70;;
62863;SDS011;48954;59.950;11.014;2022-10-16T07:58:09;10.00;;;4.50;;
62863;SDS011;48954;59.950;11.014;2022-10-16T08:00:36;9.10;;;4.70;;
62863;SDS011;48954;59.950;11.014;2022-10-16T08:03:02;7.30;;;3.80;;
62863;SDS011;48954;59.950;11.014;2022-10-16T08:05:30;8.60;;;5.40;;
62863;SDS011;48954;59.950;11.014;2022-10-16T08:07:58;7.90;;;4.80;;
62863;SDS011;48954;59.950;11.014;2022-10-16T08:10:25;9.10;;;4.50;;
62863;SDS011;48954;59.950;11.014;2022-10-16T08:13:03;8.20;;;3.60;;
62863;SDS011;48954;59.950;11.014;2022-10-16T08:28:44;9.20;;;3.80;;
62863;SDS011;48954;59.950;11.014;2022-10-16T08:31:32;10.20;;;5.30;;
62863;SDS011;48954;59.950;11.014;2022-10-16T08:36:44;6.10;;;3.20;;
62863;SDS011;48954;59.950;11.014;2022-10-16T08:39:13;8.90;;;4.20;;
62863;SDS011;48954;59.950;11.014;2022-10-16T08:47:40;9.60;;;4.70;;
62863;SDS011;48954;59.950;11.014;2022-10-16T08:50:17;9.70;;;4.10;;
62863;SDS011;48954;59.950;11.014;2022-10-16T08:53:02;7.40;;;3.30;;
62863;SDS011;48954;59.950;11.014;2022-10-16T08:55:46;9.00;;;3.40;;
62863;SDS011;48954;59.950;11.014;2022-10-16T08:58:17;10.30;;;4.70;;
62863;SDS011;48954;59.950;11.014;2022-10-16T09:00:46;10.20;;;4.50;;
62863;SDS011;48954;59.950;11.014;2022-10-16T09:09:15;5.20;;;3.40;;
62863;SDS011;48954;59.950;11.014;2022-10-16T09:23:15;10.80;;;5.90;;
62863;SDS011;48954;59.950;11.014;2022-10-16T09:25:49;12.40;;;4.70;;
62863;SDS011;48954;59.950;11.014;2022-10-16T09:28:17;12.50;;;5.30;;
62863;SDS011;48954;59.950;11.014;2022-10-16T09:30:44;15.40;;;7.00;;
62863;SDS011;48954;59.950;11.014;2022-10-16T09:33:12;10.20;;;5.90;;
62863;SDS011;48954;59.950;11.014;2022-10-16T09:35:41;13.10;;;6.60;;
62863;SDS011;48954;59.950;11.014;2022-10-16T09:41:02;11.40;;;5.80;;
62863;SDS011;48954;59.950;11.014;2022-10-16T09:43:41;16.20;;;6.60;;
62863;SDS011;48954;59.950;11.014;2022-10-16T09:46:26;11.80;;;5.60;;
62863;SDS011;48954;59.950;11.014;2022-10-16T09:49:01;17.20;;;7.10;;
62863;SDS011;48954;59.950;11.014;2022-10-16T09:51:30;10.00;;;4.80;;
62863;SDS011;48954;59.950;11.014;2022-10-16T09:54:00;12.20;;;5.80;;
62863;SDS011;48954;59.950;11.014;2022-10-16T09:56:31;15.90;;;6.20;;
62863;SDS011;48954;59.950;11.014;2022-10-16T09:59:01;15.40;;;8.00;;
62863;SDS011;48954;59.950;11.014;2022-10-16T10:01:38;16.40;;;7.10;;
62863;SDS011;48954;59.950;11.014;2022-10-16T10:04:06;14.10;;;8.20;;
62863;SDS011;48954;59.950;11.014;2022-10-16T10:06:34;14.60;;;7.00;;
62863;SDS011;48954;59.950;11.014;2022-10-16T10:09:06;14.80;;;7.60;;
62863;SDS011;48954;59.950;11.014;2022-10-16T10:14:22;14.90;;;6.80;;
62863;SDS011;48954;59.950;11.014;2022-10-16T10:17:08;14.80;;;6.60;;
62863;SDS011;48954;59.950;11.014;2022-10-16T10:27:42;6.20;;;1.70;;
62863;SDS011;48954;59.950;11.014;2022-10-16T10:44:35;9.20;;;4.10;;
62863;SDS011;48954;59.950;11.014;2022-10-16T11:01:26;18.40;;;6.90;;
62863;SDS011;48954;59.950;11.014;2022-10-16T11:06:48;19.70;;;7.30;;
62863;SDS011;48954;59.950;11.014;2022-10-16T11:09:21;18.00;;;6.50;;
62863;SDS011;48954;59.950;11.014;2022-10-16T11:11:54;12.50;;;4.60;;
62863;SDS011;48954;59.950;11.014;2022-10-16T11:14:34;14.00;;;4.70;;
62863;SDS011;48954;59.950;11.014;2022-10-16T11:17:25;7.80;;;3.40;;
62863;SDS011;48954;59.950;11.014;2022-10-16T11:20:10;7.10;;;2.90;;
62863;SDS011;48954;59.950;11.014;2022-10-16T11:25:13;6.40;;;2.00;;
62863;SDS011;48954;59.950;11.014;2022-10-16T11:30:39;2.80;;;1.50;;
62863;SDS011;48954;59.950;11.014;2022-10-16T11:36:31;9.00;;;2.20;;
62863;SDS011;48954;59.950;11.014;2022-10-16T11:41:37;17.20;;;5.30;;
62863;SDS011;48954;59.950;11.014;2022-10-16T11:44:23;17.30;;;5.30;;
62863;SDS011;48954;59.950;11.014;2022-10-16T11:55:36;22.40;;;6.70;;
62863;SDS011;48954;59.950;11.014;2022-10-16T12:09:35;12.70;;;3.70;;
62863;SDS011;48954;59.950;11.014;2022-10-16T12:12:03;7.50;;;1.80;;
62863;SDS011;48954;59.950;11.014;2022-10-16T12:17:33;4.40;;;2.20;;
62863;SDS011;48954;59.950;11.014;2022-10-16T12:22:54;8.30;;;2.80;;
62863;SDS011;48954;59.950;11.014;2022-10-16T12:25:23;10.80;;;3.30;;
62863;SDS011;48954;59.950;11.014;2022-10-16T12:28:17;9.40;;;3.50;;
62863;SDS011;48954;59.950;11.014;2022-10-16T12:30:55;7.20;;;2.20;;
62863;SDS011;48954;59.950;11.014;2022-10-16T12:33:30;5.00;;;2.20;;
62863;SDS011;48954;59.950;11.014;2022-10-16T12:35:59;8.30;;;2.90;;
62863;SDS011;48954;59.950;11.014;2022-10-16T12:38:33;5.90;;;2.00;;
62863;SDS011;48954;59.950;11.014;2022-10-16T12:41:06;5.90;;;1.90;;
62863;SDS011;48954;59.950;11.014;2022-10-16T12:48:43;3.60;;;1.30;;
62863;SDS011;48954;59.950;11.014;2022-10-16T12:51:21;4.80;;;1.70;;
62863;SDS011;48954;59.950;11.014;2022-10-16T12:54:12;5.90;;;1.30;;
62863;SDS011;48954;59.950;11.014;2022-10-16T13:05:45;7.70;;;3.60;;
62863;SDS011;48954;59.950;11.014;2022-10-16T13:22:06;6.90;;;2.60;;
62863;SDS011;48954;59.950;11.014;2022-10-16T13:30:54;6.00;;;2.50;;
62863;SDS011;48954;59.950;11.014;2022-10-16T13:36:29;6.90;;;2.00;;
62863;SDS011;48954;59.950;11.014;2022-10-16T13:42:05;4.90;;;2.30;;
62863;SDS011;48954;59.950;11.014;2022-10-16T13:44:46;5.20;;;2.00;;
62863;SDS011;48954;59.950;11.014;2022-10-16T13:47:43;4.90;;;1.50;;
62863;SDS011;48954;59.950;11.014;2022-10-16T13:50:30;10.30;;;3.90;;
62863;SDS011;48954;59.950;11.014;2022-10-16T13:53:05;3.80;;;1.50;;
62863;SDS011;48954;59.950;11.014;2022-10-16T13:56:06;4.20;;;2.00;;
62863;SDS011;48954;59.950;11.014;2022-10-16T13:58:41;6.70;;;2.50;;
62863;SDS011;48954;59.950;11.014;2022-10-16T14:01:17;8.30;;;2.90;;
62863;SDS011;48954;59.950;11.014;2022-10-16T14:04:19;5.20;;;1.90;;
62863;SDS011;48954;59.950;11.014;2022-10-16T14:06:46;5.50;;;2.20;;
62863;SDS011;48954;59.950;11.014;2022-10-16T14:12:57;4.30;;;1.80;;
62863;SDS011;48954;59.950;11.014;2022-10-16T14:15:49;7.20;;;2.80;;
62863;SDS011;48954;59.950;11.014;2022-10-16T14:18:33;8.80;;;3.00;;
62863;SDS011;48954;59.950;11.014;2022-10-16T14:21:12;11.20;;;3.40;;
62863;SDS011;48954;59.950;11.014;2022-10-16T14:23:41;5.80;;;2.20;;
62863;SDS011;48954;59.950;11.014;2022-10-16T14:26:13;5.50;;;1.90;;
62863;SDS011;48954;59.950;11.014;2022-10-16T14:28:46;4.70;;;1.80;;
62863;SDS011;48954;59.950;11.014;2022-10-16T14:31:36;5.20;;;2.40;;
62863;SDS011;48954;59.950;11.014;2022-10-16T14:34:02;4.70;;;1.90;;
62863;SDS011;48954;59.950;11.014;2022-10-16T14:36:28;6.90;;;2.90;;
62863;SDS011;48954;59.950;11.014;2022-10-16T14:39:04;8.60;;;3.10;;
62863;SDS011;48954;59.950;11.014;2022-10-16T14:41:54;12.50;;;4.40;;
62863;SDS011;48954;59.950;11.014;2022-10-16T14:51:18;11.00;;;3.50;;
62863;SDS011;48954;59.950;11.014;2022-10-16T14:53:45;11.90;;;4.40;;
62863;SDS011;48954;59.950;11.014;2022-10-16T14:59:45;12.00;;;3.80;;
62863;SDS011;48954;59.950;11.014;2022-10-16T15:04:50;10.50;;;2.50;;
62863;SDS011;48954;59.950;11.014;2022-10-16T15:07:16;8.50;;;3.10;;
62863;SDS011;48954;59.950;11.014;2022-10-16T15:09:51;8.50;;;3.10;;
62863;SDS011;48954;59.950;11.014;2022-10-16T15:12:48;8.10;;;2.00;;
62863;SDS011;48954;59.950;11.014;2022-10-16T15:18:13;7.70;;;3.10;;
62863;SDS011;48954;59.950;11.014;2022-10-16T15:20:43;7.60;;;2.30;;
62863;SDS011;48954;59.950;11.014;2022-10-16T15:25:50;7.50;;;3.00;;
62863;SDS011;48954;59.950;11.014;2022-10-16T15:28:36;9.90;;;3.00;;
62863;SDS011;48954;59.950;11.014;2022-10-16T15:31:02;6.60;;;2.20;;
62863;SDS011;48954;59.950;11.014;2022-10-16T15:33:42;7.00;;;2.20;;
62863;SDS011;48954;59.950;11.014;2022-10-16T15:36:27;6.40;;;1.80;;
62863;SDS011;48954;59.950;11.014;2022-10-16T15:38:59;6.80;;;1.80;;
62863;SDS011;48954;59.950;11.014;2022-10-16T15:44:20;4.60;;;2.00;;
62863;SDS011;48954;59.950;11.014;2022-10-16T15:46:49;5.80;;;2.20;;
62863;SDS011;48954;59.950;11.014;2022-10-16T15:49:14;5.40;;;1.80;;
62863;SDS011;48954;59.950;11.014;2022-10-16T15:51:44;5.40;;;2.50;;
62863;SDS011;48954;59.950;11.014;2022-10-16T15:54:10;5.10;;;2.00;;
62863;SDS011;48954;59.950;11.014;2022-10-16T15:56:36;4.10;;;1.70;;
62863;SDS011;48954;59.950;11.014;2022-10-16T15:59:16;4.30;;;1.90;;
62863;SDS011;48954;59.950;11.014;2022-10-16T16:01:44;3.80;;;2.20;;
62863;SDS011;48954;59.950;11.014;2022-10-16T16:04:24;5.70;;;1.70;;
62863;SDS011;48954;59.950;11.014;2022-10-16T16:06:54;3.90;;;2.00;;
62863;SDS011;48954;59.950;11.014;2022-10-16T16:09:35;5.30;;;2.10;;
62863;SDS011;48954;59.950;11.014;2022-10-16T16:12:11;9.60;;;4.00;;
62863;SDS011;48954;59.950;11.014;2022-10-16T16:14:47;5.10;;;2.00;;
62863;SDS011;48954;59.950;11.014;2022-10-16T16:17:20;4.60;;;2.40;;
62863;SDS011;48954;59.950;11.014;2022-10-16T16:22:21;5.70;;;2.30;;
62863;SDS011;48954;59.950;11.014;2022-10-16T16:24:51;5.10;;;1.90;;
62863;SDS011;48954;59.950;11.014;2022-10-16T16:27:25;7.10;;;2.20;;
62863;SDS011;48954;59.950;11.014;2022-10-16T16:29:52;6.50;;;2.10;;
62863;SDS011;48954;59.950;11.014;2022-10-16T16:32:18;6.20;;;1.80;;
62863;SDS011;48954;59.950;11.014;2022-10-16T16:34:51;4.40;;;2.00;;
62863;SDS011;48954;59.950;11.014;2022-10-16T16:37:21;5.80;;;2.10;;
62863;SDS011;48954;59.950;11.014;2022-10-16T16:39:52;6.70;;;2.10;;
62863;SDS011;48954;59.950;11.014;2022-10-16T16:42:34;5.40;;;2.20;;
62863;SDS011;48954;59.950;11.014;2022-10-16T16:45:16;8.80;;;3.10;;
62863;SDS011;48954;59.950;11.014;2022-10-16T16:47:47;5.50;;;2.10;;
62863;SDS011;48954;59.950;11.014;2022-10-16T16:53:42;7.80;;;2.80;;
62863;SDS011;48954;59.950;11.014;2022-10-16T16:56:15;10.00;;;3.10;;
62863;SDS011;48954;59.950;11.014;2022-10-16T16:58:53;6.70;;;3.00;;
62863;SDS011;48954;59.950;11.014;2022-10-16T17:01:43;3.90;;;2.20;;
62863;SDS011;48954;59.950;11.014;2022-10-16T17:04:20;4.40;;;2.30;;
62863;SDS011;48954;59.950;11.014;2022-10-16T17:06:53;6.60;;;2.30;;
62863;SDS011;48954;59.950;11.014;2022-10-16T17:09:35;5.60;;;2.50;;
62863;SDS011;48954;59.950;11.014;2022-10-16T17:12:31;5.60;;;2.30;;
62863;SDS011;48954;59.950;11.014;2022-10-16T17:15:03;8.70;;;3.60;;
62863;SDS011;48954;59.950;11.014;2022-10-16T17:17:42;7.60;;;3.40;;
62863;SDS011;48954;59.950;11.014;2022-10-16T17:20:35;6.30;;;2.60;;
62863;SDS011;48954;59.950;11.014;2022-10-16T17:23:01;10.60;;;3.40;;
62863;SDS011;48954;59.950;11.014;2022-10-16T17:25:41;9.20;;;3.50;;
62863;SDS011;48954;59.950;11.014;2022-10-16T17:28:30;8.70;;;2.80;;
62863;SDS011;48954;59.950;11.014;2022-10-16T17:31:21;6.70;;;2.50;;
62863;SDS011;48954;59.950;11.014;2022-10-16T17:34:15;6.30;;;2.00;;
62863;SDS011;48954;59.950;11.014;2022-10-16T17:36:52;7.90;;;2.30;;
62863;SDS011;48954;59.950;11.014;2022-10-16T17:39:33;6.80;;;3.00;;
62863;SDS011;48954;59.950;11.014;2022-10-16T17:42:13;8.30;;;2.70;;
62863;SDS011;48954;59.950;11.014;2022-10-16T17:44:44;6.80;;;2.10;;
62863;SDS011;48954;59.950;11.014;2022-10-16T17:47:16;9.60;;;2.80;;
62863;SDS011;48954;59.950;11.014;2022-10-16T17:50:10;10.30;;;3.30;;
62863;SDS011;48954;59.950;11.014;2022-10-16T17:52:46;10.10;;;3.60;;
62863;SDS011;48954;59.950;11.014;2022-10-16T17:55:12;8.20;;;3.20;;
62863;SDS011;48954;59.950;11.014;2022-10-16T18:01:14;9.30;;;3.30;;
62863;SDS011;48954;59.950;11.014;2022-10-16T18:10:07;9.10;;;3.60;;
62863;SDS011;48954;59.950;11.014;2022-10-16T18:12:33;13.30;;;3.90;;
62863;SDS011;48954;59.950;11.014;2022-10-16T18:15:17;8.90;;;2.80;;
62863;SDS011;48954;59.950;11.014;2022-10-16T18:17:43;10.90;;;3.10;;
62863;SDS011;48954;59.950;11.014;2022-10-16T18:20:38;11.40;;;3.10;;
62863;SDS011;48954;59.950;11.014;2022-10-16T18:23:04;10.80;;;3.10;;
62863;SDS011;48954;59.950;11.014;2022-10-16T18:25:57;12.30;;;2.60;;
62863;SDS011;48954;59.950;11.014;2022-10-16T18:29:09;8.80;;;2.60;;
62863;SDS011;48954;59.950;11.014;2022-10-16T18:31:49;7.40;;;2.20;;
62863;SDS011;48954;59.950;11.014;2022-10-16T18:34:44;9.20;;;3.10;;
62863;SDS011;48954;59.950;11.014;2022-10-16T18:37:25;7.00;;;2.40;;
62863;SDS011;48954;59.950;11.014;2022-10-16T18:39:59;8.40;;;2.40;;
62863;SDS011;48954;59.950;11.014;2022-10-16T18:42:36;9.90;;;2.90;;
62863;SDS011;48954;59.950;11.014;2022-10-16T18:45:25;7.40;;;2.20;;
62863;SDS011;48954;59.950;11.014;2022-10-16T18:47:56;9.40;;;2.40;;
62863;SDS011;48954;59.950;11.014;2022-10-16T18:50:22;9.10;;;2.50;;
62863;SDS011;48954;59.950;11.014;2022-10-16T18:53:00;9.40;;;3.30;;
62863;SDS011;48954;59.950;11.014;2022-10-16T18:55:29;15.00;;;4.40;;